createdAt,value
2023-04-02T00:01:51.469Z,96403.09
2023-04-02T00:04:17.769Z,96409.47
2023-04-02T00:06:44.042Z,96409.47
2023-04-02T00:09:10.324Z,96405.50
2023-04-02T00:11:36.593Z,96405.19
2023-04-02T00:14:02.879Z,96407.31
2023-04-02T00:16:29.212Z,96405.72
2023-04-02T00:18:55.504Z,96400.63
2023-04-02T00:21:21.781Z,96404.41
2023-04-02T00:23:48.052Z,96394.81
2023-04-02T00:26:14.289Z,96397.47
2023-04-02T00:28:40.555Z,96401.47
2023-04-02T00:31:06.889Z,96407.38
2023-04-02T00:33:33.172Z,96403.34
2023-04-02T00:35:59.439Z,96403.84
2023-04-02T00:38:25.719Z,96415.81
2023-04-02T00:40:51.992Z,96412.34
2023-04-02T00:43:18.254Z,96411.53
2023-04-02T00:45:44.515Z,96422.44
2023-04-02T00:48:10.850Z,96415.75
2023-04-02T00:50:37.122Z,96420.56
2023-04-02T00:53:03.429Z,96413.88
2023-04-02T00:55:29.709Z,96415.50
2023-04-02T00:57:55.990Z,96416.53
2023-04-02T01:00:22.252Z,96410.41
2023-04-02T01:02:48.569Z,96412.25
2023-04-02T01:05:14.950Z,96411.69
2023-04-02T01:07:41.307Z,96416.22
2023-04-02T01:10:07.575Z,96409.59
2023-04-02T01:12:33.833Z,96416.53
2023-04-02T01:15:00.102Z,96413.31
2023-04-02T01:17:26.470Z,96419.38
2023-04-02T01:19:52.808Z,96424.69
2023-04-02T01:22:19.050Z,96425.25
2023-04-02T01:24:45.309Z,96425.25
2023-04-02T01:27:11.568Z,96425.19
2023-04-02T01:29:37.847Z,96420.66
2023-04-02T01:32:04.081Z,96427.50
2023-04-02T01:34:30.358Z,96426.94
2023-04-02T01:36:56.608Z,96433.06
2023-04-02T01:39:22.865Z,96427.75
2023-04-02T01:41:49.178Z,96424.84
2023-04-02T01:44:15.436Z,96427.75
2023-04-02T01:46:41.739Z,96415.22
2023-04-02T01:49:08.033Z,96418.47
2023-04-02T01:51:34.268Z,96419.25
2023-04-02T01:54:00.541Z,96419.25
2023-04-02T01:56:26.779Z,96419.84
2023-04-02T01:58:53.100Z,96423.56
2023-04-02T02:01:19.570Z,96419.84
2023-04-02T02:03:46.009Z,96425.88
2023-04-02T02:06:12.272Z,96434.44
2023-04-02T02:08:38.528Z,96440.25
2023-04-02T02:11:04.822Z,96448.25
2023-04-02T02:13:31.102Z,96441.63
2023-04-02T02:15:57.424Z,96437.91
2023-04-02T02:18:23.744Z,96439.78
2023-04-02T02:20:50.011Z,96444.28
2023-04-02T02:23:16.276Z,96452.88
2023-04-02T02:25:42.517Z,96443.25
2023-04-02T02:28:08.783Z,96456.81
2023-04-02T02:30:35.058Z,96452.28
2023-04-02T02:33:01.346Z,96459.03
2023-04-02T02:35:27.665Z,96465.41
2023-04-02T02:37:53.964Z,96462.72
2023-04-02T02:40:20.227Z,96462.38
2023-04-02T02:42:46.479Z,96461.56
2023-04-02T02:45:12.755Z,96456.16
2023-04-02T02:47:39.061Z,96456.47
2023-04-02T02:50:05.348Z,96451.72
2023-04-02T02:52:31.623Z,96450.09
2023-04-02T02:54:57.925Z,96451.41
2023-04-02T02:57:24.286Z,96447.13
2023-04-02T02:59:50.575Z,96452.19
2023-04-02T03:02:16.856Z,96448.97
2023-04-02T03:04:43.145Z,96462.06
2023-04-02T03:07:09.388Z,96457.78
2023-04-02T03:09:35.668Z,96465.28
2023-04-02T03:12:01.986Z,96465.28
2023-04-02T03:14:28.293Z,96464.72
2023-04-02T03:16:54.554Z,96468.44
2023-04-02T03:19:20.805Z,96471.09
2023-04-02T03:21:47.079Z,96469.47
2023-04-02T03:24:13.343Z,96466.00
2023-04-02T03:26:39.617Z,96465.44
2023-04-02T03:29:05.887Z,96477.63
2023-04-02T03:31:32.170Z,96470.44
2023-04-02T03:33:58.503Z,96470.19
2023-04-02T03:36:24.815Z,96466.25
2023-04-02T03:38:51.058Z,96468.34
2023-04-02T03:41:17.305Z,96472.63
2023-04-02T03:43:43.571Z,96471.00
2023-04-02T03:46:09.880Z,96471.81
2023-04-02T03:48:36.155Z,96473.44
2023-04-02T03:51:02.414Z,96470.03
2023-04-02T03:53:28.666Z,96478.84
2023-04-02T03:55:54.949Z,96483.59
2023-04-02T03:58:21.240Z,96475.63
2023-04-02T04:00:47.517Z,96482.78
2023-04-02T04:03:13.845Z,96481.75
2023-04-02T04:05:40.152Z,96481.19
2023-04-02T04:08:06.419Z,96482.00
2023-04-02T04:10:32.700Z,96485.22
2023-04-02T04:12:58.963Z,96482.06
2023-04-02T04:15:25.222Z,96481.94
2023-04-02T04:17:51.650Z,96480.78
2023-04-02T04:20:18.086Z,96485.56
2023-04-02T04:22:44.353Z,96488.78
2023-04-02T04:25:10.670Z,96483.22
2023-04-02T04:27:36.928Z,96487.97
2023-04-02T04:30:03.204Z,96484.25
2023-04-02T04:32:29.541Z,96487.97
2023-04-02T04:34:55.839Z,96487.72
2023-04-02T04:37:22.091Z,96492.25
2023-04-02T04:39:48.442Z,96502.09
2023-04-02T04:42:14.717Z,96498.63
2023-04-02T04:44:40.993Z,96497.56
2023-04-02T04:47:07.280Z,96505.38
2023-04-02T04:49:33.557Z,96499.00
2023-04-02T04:51:59.802Z,96505.38
2023-04-02T04:54:26.063Z,96508.84
2023-04-02T04:56:52.379Z,96511.72
2023-04-02T04:59:18.658Z,96503.72
2023-04-02T05:01:44.983Z,96505.13
2023-04-02T05:04:11.300Z,96507.53
2023-04-02T05:06:37.602Z,96505.69
2023-04-02T05:09:03.893Z,96508.59
2023-04-02T05:11:30.178Z,96513.13
2023-04-02T05:13:56.440Z,96515.78
2023-04-02T05:16:22.813Z,96505.44
2023-04-02T05:18:49.114Z,96518.53
2023-04-02T05:21:15.388Z,96515.06
2023-04-02T05:23:41.681Z,96508.91
2023-04-02T05:26:08.074Z,96520.38
2023-04-02T05:28:34.327Z,96521.69
2023-04-02T05:31:00.602Z,96526.53
2023-04-02T05:33:26.864Z,96525.47
2023-04-02T05:35:53.193Z,96525.25
2023-04-02T05:38:19.467Z,96526.84
2023-04-02T05:40:45.731Z,96530.91
2023-04-02T05:43:12.008Z,96531.22
2023-04-02T05:45:38.337Z,96533.31
2023-04-02T05:48:04.757Z,96542.69
2023-04-02T05:50:31.054Z,96537.59
2023-04-02T05:52:57.297Z,96532.84
2023-04-02T05:55:23.568Z,96532.88
2023-04-02T05:58:07.062Z,96536.06
2023-04-02T06:00:36.802Z,96526.69
2023-04-02T06:03:03.211Z,96544.31
2023-04-02T06:05:29.596Z,96544.31
2023-04-02T06:07:55.859Z,96548.59
2023-04-02T06:10:24.108Z,96550.75
2023-04-02T06:12:50.987Z,96552.34
2023-04-02T06:15:17.254Z,96555.09
2023-04-02T06:17:43.530Z,96550.00
2023-04-02T06:20:09.809Z,96554.06
2023-04-02T06:22:36.071Z,96552.13
2023-04-02T06:25:02.356Z,96556.88
2023-04-02T06:27:28.624Z,96561.41
2023-04-02T06:29:54.895Z,96560.09
2023-04-02T06:32:21.166Z,96564.63
2023-04-02T06:34:47.471Z,96559.16
2023-04-02T06:37:13.740Z,96574.09
2023-04-02T06:39:40.006Z,96565.28
2023-04-02T06:42:06.279Z,96569.00
2023-04-02T06:44:32.554Z,96575.38
2023-04-02T06:46:58.841Z,96570.84
2023-04-02T06:49:25.123Z,96570.53
2023-04-02T06:51:51.438Z,96576.44
2023-04-02T06:54:17.720Z,96578.84
2023-04-02T06:56:44.004Z,96586.03
2023-04-02T06:59:10.274Z,96585.47
2023-04-02T07:01:36.572Z,96589.53
2023-04-02T07:04:02.846Z,96593.56
2023-04-02T07:06:29.134Z,96593.81
2023-04-02T07:08:55.416Z,96592.75
2023-04-02T07:11:21.657Z,96595.75
2023-04-02T07:13:47.925Z,96599.63
2023-04-02T07:16:14.244Z,96605.44
2023-04-02T07:18:40.562Z,96597.13
2023-04-02T07:21:06.854Z,96600.13
2023-04-02T07:23:33.098Z,96601.97
2023-04-02T07:25:59.375Z,96603.03
2023-04-02T07:28:25.706Z,96612.06
2023-04-02T07:30:52.117Z,96611.84
2023-04-02T07:33:18.398Z,96609.50
2023-04-02T07:35:44.672Z,96615.06
2023-04-02T07:38:10.960Z,96622.81
2023-04-02T07:40:37.231Z,96618.31
2023-04-02T07:43:03.487Z,96616.44
2023-04-02T07:45:29.751Z,96624.19
2023-04-02T07:47:56.063Z,96615.97
2023-04-02T07:50:22.432Z,96625.91
2023-04-02T07:52:48.715Z,96630.28
2023-04-02T07:55:15.000Z,96632.63
2023-04-02T07:57:41.270Z,96635.03
2023-04-02T08:00:07.546Z,96635.75
2023-04-02T08:02:33.952Z,96640.63
2023-04-02T08:05:00.347Z,96637.94
2023-04-02T08:07:26.612Z,96645.72
2023-04-02T08:09:52.886Z,96640.84
2023-04-02T08:12:19.253Z,96647.88
2023-04-02T08:14:45.505Z,96643.13
2023-04-02T08:17:11.800Z,96639.97
2023-04-02T08:19:51.719Z,96650.81
2023-04-02T08:22:20.823Z,96652.59
2023-04-02T08:24:47.104Z,96649.13
2023-04-02T08:27:13.368Z,96650.75
2023-04-02T08:29:39.660Z,96651.88
2023-04-02T08:32:05.972Z,96653.56
2023-04-02T08:34:32.236Z,96659.38
2023-04-02T08:36:58.505Z,96653.88
2023-04-02T08:39:24.765Z,96658.00
2023-04-02T08:41:51.130Z,96653.31
2023-04-02T08:44:17.442Z,96658.66
2023-04-02T08:46:43.733Z,96657.69
2023-04-02T08:49:10.067Z,96655.66
2023-04-02T08:51:36.400Z,96662.38
2023-04-02T08:54:02.666Z,96659.69
2023-04-02T08:56:28.943Z,96668.59
2023-04-02T08:58:56.261Z,96664.56
2023-04-02T09:01:22.528Z,96675.06
2023-04-02T09:03:48.822Z,96672.47
2023-04-02T09:06:16.588Z,96680.00
2023-04-02T09:08:43.024Z,96671.91
2023-04-02T09:11:09.283Z,96680.97
2023-04-02T09:13:35.538Z,96679.66
2023-04-02T09:16:01.837Z,96688.50
2023-04-02T09:18:28.137Z,96688.56
2023-04-02T09:20:54.436Z,96689.69
2023-04-02T09:23:20.717Z,96691.88
2023-04-02T09:25:57.317Z,96695.59
2023-04-02T09:28:23.907Z,96702.97
2023-04-02T09:30:50.179Z,96699.19
2023-04-02T09:33:16.441Z,96705.72
2023-04-02T09:35:42.850Z,96705.56
2023-04-02T09:38:09.257Z,96704.03
2023-04-02T09:40:35.532Z,96704.84
2023-04-02T09:43:01.792Z,96702.47
2023-04-02T09:45:28.092Z,96709.44
2023-04-02T09:47:54.350Z,96710.50
2023-04-02T09:50:20.646Z,96713.16
2023-04-02T09:52:46.919Z,96720.94
2023-04-02T09:55:13.259Z,96710.59
2023-04-02T09:57:39.517Z,96720.13
2023-04-02T10:00:05.775Z,96721.66
2023-04-02T10:02:32.076Z,96724.66
2023-04-02T10:04:58.510Z,96728.13
2023-04-02T10:07:24.797Z,96721.75
2023-04-02T10:09:51.096Z,96731.44
2023-04-02T10:12:17.370Z,96731.44
2023-04-02T10:14:43.640Z,96734.94
2023-04-02T10:17:09.909Z,96738.09
2023-04-02T10:19:36.170Z,96736.72
2023-04-02T10:22:02.442Z,96738.97
2023-04-02T10:24:28.743Z,96740.75
2023-04-02T10:26:55.008Z,96749.34
2023-04-02T10:29:21.282Z,96746.97
2023-04-02T10:31:47.572Z,96747.88
2023-04-02T10:34:13.857Z,96748.53
2023-04-02T10:36:40.131Z,96754.03
2023-04-02T10:39:06.440Z,96757.59
2023-04-02T10:41:32.787Z,96757.13
2023-04-02T10:44:06.123Z,96749.91
2023-04-02T10:46:39.391Z,96752.97
2023-04-02T10:49:05.875Z,96751.13
2023-04-02T10:51:32.153Z,96753.22
2023-04-02T10:53:58.433Z,96757.75
2023-04-02T10:56:24.749Z,96755.66
2023-04-02T10:58:51.048Z,96757.50
2023-04-02T11:01:17.403Z,96757.84
2023-04-02T11:03:43.886Z,96759.88
2023-04-02T11:06:11.937Z,96758.97
2023-04-02T11:08:38.360Z,96761.94
2023-04-02T11:11:04.814Z,96771.09
2023-04-02T11:13:31.194Z,96766.81
2023-04-02T11:15:57.502Z,96770.09
2023-04-02T11:18:23.782Z,96773.34
2023-04-02T11:20:50.151Z,96768.53
2023-04-02T11:23:16.389Z,96768.50
2023-04-02T11:25:42.731Z,96765.50
2023-04-02T11:28:08.997Z,96770.28
2023-04-02T11:30:35.258Z,96774.81
2023-04-02T11:33:01.594Z,96770.53
2023-04-02T11:35:27.891Z,96772.72
2023-04-02T11:37:54.188Z,96781.78
2023-04-02T11:40:20.467Z,96780.16
2023-04-02T11:42:46.730Z,96781.72
2023-04-02T11:45:13.026Z,96774.75
2023-04-02T11:47:39.347Z,96787.38
2023-04-02T11:50:05.769Z,96787.69
2023-04-02T11:52:32.115Z,96787.69
2023-04-02T11:54:58.374Z,96792.72
2023-04-02T11:57:24.752Z,96802.59
2023-04-02T11:59:51.032Z,96798.63
2023-04-02T12:02:17.433Z,96801.13
2023-04-02T12:04:43.748Z,96803.81
2023-04-02T12:07:10.065Z,96802.44
2023-04-02T12:09:36.327Z,96807.78
2023-04-02T12:12:02.586Z,96811.25
2023-04-02T12:14:28.856Z,96807.00
2023-04-02T12:16:55.184Z,96811.84
2023-04-02T12:19:21.444Z,96809.19
2023-04-02T12:21:47.703Z,96813.47
2023-04-02T12:24:13.971Z,96815.91
2023-04-02T12:26:40.293Z,96814.34
2023-04-02T12:29:06.572Z,96813.88
2023-04-02T12:31:32.908Z,96816.03
2023-04-02T12:33:59.200Z,96811.50
2023-04-02T12:36:25.555Z,96815.31
2023-04-02T12:38:51.879Z,96818.78
2023-04-02T12:41:18.142Z,96825.59
2023-04-02T12:43:44.418Z,96825.03
2023-04-02T12:46:10.741Z,96821.59
2023-04-02T12:48:37.047Z,96825.66
2023-04-02T12:51:03.341Z,96822.47
2023-04-02T12:53:29.690Z,96822.16
2023-04-02T12:55:55.965Z,96826.53
2023-04-02T12:58:22.234Z,96827.66
2023-04-02T13:00:48.490Z,96822.53
2023-04-02T13:03:14.874Z,96822.72
2023-04-02T13:05:41.228Z,96819.63
2023-04-02T13:08:07.537Z,96832.75
2023-04-02T13:10:33.855Z,96827.41
2023-04-02T13:13:00.148Z,96821.56
2023-04-02T13:15:27.239Z,96828.53
2023-04-02T13:17:54.605Z,96829.81
2023-04-02T13:20:20.891Z,96826.59
2023-04-02T13:22:47.229Z,96833.81
2023-04-02T13:25:13.524Z,96831.63
2023-04-02T13:27:39.827Z,96826.34
2023-04-02T13:30:06.066Z,96824.16
2023-04-02T13:32:32.359Z,96829.81
2023-04-02T13:34:58.650Z,96828.06
2023-04-02T13:37:24.978Z,96827.28
2023-04-02T13:39:51.316Z,96822.97
2023-04-02T13:42:17.585Z,96828.88
2023-04-02T13:44:43.857Z,96830.00
2023-04-02T13:47:10.166Z,96831.88
2023-04-02T13:49:36.429Z,96828.63
2023-04-02T13:52:02.714Z,96833.19
2023-04-02T13:54:28.976Z,96828.63
2023-04-02T13:56:55.315Z,96829.44
2023-04-02T13:59:21.610Z,96828.75
2023-04-02T14:01:47.913Z,96825.19
2023-04-02T14:04:14.202Z,96823.34
2023-04-02T14:06:40.529Z,96826.88
2023-04-02T14:09:06.816Z,96827.44
2023-04-02T14:11:33.085Z,96824.53
2023-04-02T14:13:59.352Z,96826.94
2023-04-02T14:16:25.646Z,96825.34
2023-04-02T14:18:51.926Z,96832.63
2023-04-02T14:21:18.240Z,96836.91
2023-04-02T14:23:44.533Z,96831.00
2023-04-02T14:26:10.897Z,96839.84
2023-04-02T14:28:37.217Z,96840.47
2023-04-02T14:31:03.529Z,96842.56
2023-04-02T14:33:29.834Z,96840.38
2023-04-02T14:35:56.126Z,96840.38
2023-04-02T14:38:22.401Z,96841.50
2023-04-02T14:40:48.702Z,96838.59
2023-04-02T14:43:14.973Z,96848.72
2023-04-02T14:45:41.255Z,96844.19
2023-04-02T14:48:07.536Z,96842.56
2023-04-02T14:50:33.985Z,96848.97
2023-04-02T14:53:00.374Z,96851.41
2023-04-02T14:55:26.636Z,96852.31
2023-04-02T14:57:52.908Z,96843.41
2023-04-02T15:00:19.181Z,96850.31
2023-04-02T15:02:45.475Z,96849.56
2023-04-02T15:05:11.846Z,96857.66
2023-04-02T15:07:38.119Z,96859.84
2023-04-02T15:10:04.364Z,96852.06
2023-04-02T15:12:30.632Z,96855.50
2023-04-02T15:14:56.900Z,96855.72
2023-04-02T15:17:23.204Z,96855.09
2023-04-02T15:19:49.491Z,96859.88
2023-04-02T15:22:15.748Z,96860.88
2023-04-02T15:24:42.043Z,96856.81
2023-04-02T15:27:12.061Z,96863.03
2023-04-02T15:29:44.490Z,96862.56
2023-04-02T15:32:10.826Z,96858.41
2023-04-02T15:34:37.062Z,96858.41
2023-04-02T15:37:03.303Z,96861.91
2023-04-02T15:39:29.628Z,96862.69
2023-04-02T15:41:55.903Z,96866.19
2023-04-02T15:44:22.208Z,96861.34
2023-04-02T15:46:48.488Z,96868.28
2023-04-02T15:49:14.762Z,96866.69
2023-04-02T15:51:41.062Z,96861.34
2023-04-02T15:54:07.356Z,96858.66
2023-04-02T15:56:33.617Z,96855.16
2023-04-02T15:58:59.898Z,96859.16
2023-04-02T16:01:26.190Z,96862.25
2023-04-02T16:03:52.572Z,96857.63
2023-04-02T16:06:18.846Z,96856.50
2023-04-02T16:08:45.150Z,96861.34
2023-04-02T16:11:14.449Z,96860.31
2023-04-02T16:13:40.721Z,96868.47
2023-04-02T16:16:07.044Z,96867.69
2023-04-02T16:18:33.358Z,96876.00
2023-04-02T16:20:59.638Z,96873.84
2023-04-02T16:23:25.936Z,96881.94
2023-04-02T16:25:52.204Z,96881.59
2023-04-02T16:28:18.474Z,96884.03
2023-04-02T16:30:44.839Z,96884.53
2023-04-02T16:33:11.143Z,96883.47
2023-04-02T16:35:43.175Z,96887.28
2023-04-02T16:38:09.938Z,96894.00
2023-04-02T16:40:36.469Z,96894.00
2023-04-02T16:43:03.233Z,96894.56
2023-04-02T16:45:29.841Z,96903.63
2023-04-02T16:47:56.193Z,96901.53
2023-04-02T16:50:22.531Z,96904.44
2023-04-02T16:52:48.878Z,96909.22
2023-04-02T16:55:15.219Z,96914.81
2023-04-02T16:57:41.593Z,96907.84
2023-04-02T17:00:07.876Z,96909.72
2023-04-02T17:02:34.200Z,96914.50
2023-04-02T17:05:00.525Z,96926.81
2023-04-02T17:07:26.818Z,96928.44
2023-04-02T17:09:53.197Z,96930.03
2023-04-02T17:12:19.520Z,96935.16
2023-04-02T17:14:45.797Z,96936.44
2023-04-02T17:17:12.056Z,96937.00
2023-04-02T17:19:38.309Z,96934.59
2023-04-02T17:22:04.661Z,96935.41
2023-04-02T17:24:30.919Z,96941.31
2023-04-02T17:26:57.193Z,96942.38
2023-04-02T17:29:23.496Z,96947.72
2023-04-02T17:31:49.847Z,96947.13
2023-04-02T17:34:16.125Z,96940.19
2023-04-02T17:36:42.496Z,96950.63
2023-04-02T17:39:08.735Z,96956.22
2023-04-02T17:41:34.991Z,96955.34
2023-04-02T17:44:01.296Z,96956.16
2023-04-02T17:46:27.675Z,96952.91
2023-04-02T17:48:53.953Z,96958.84
2023-04-02T17:51:20.215Z,96961.75
2023-04-02T17:53:46.460Z,96957.44
2023-04-02T17:56:12.710Z,96962.00
2023-04-02T17:58:38.999Z,96972.44
2023-04-02T18:01:05.270Z,96970.00
2023-04-02T18:03:31.567Z,96972.69
2023-04-02T18:05:57.832Z,96973.50
2023-04-02T18:08:24.128Z,96975.91
2023-04-02T18:10:50.404Z,96978.84
2023-04-02T18:13:16.659Z,96976.41
2023-04-02T18:15:42.942Z,96977.22
2023-04-02T18:18:09.211Z,96982.81
2023-04-02T18:20:35.603Z,96987.09
2023-04-02T18:23:02.054Z,96983.03
2023-04-02T18:25:28.311Z,96984.91
2023-04-02T18:27:54.567Z,96989.44
2023-04-02T18:30:20.900Z,96988.88
2023-04-02T18:32:47.195Z,96989.09
2023-04-02T18:35:13.460Z,96993.06
2023-04-02T18:37:39.753Z,96997.38
2023-04-02T18:40:06.019Z,96996.22
2023-04-02T18:42:32.349Z,97002.94
2023-04-02T18:44:58.601Z,97002.13
2023-04-02T18:47:24.926Z,97001.56
2023-04-02T18:49:51.212Z,97010.41
2023-04-02T18:52:17.653Z,97011.44
2023-04-02T18:54:45.405Z,97011.44
2023-04-02T18:57:11.728Z,97007.97
2023-04-02T18:59:38.113Z,97020.75
2023-04-02T19:02:04.465Z,97012.50
2023-04-02T19:04:30.804Z,97023.19
2023-04-02T19:06:57.103Z,97022.63
2023-04-02T19:09:23.401Z,97018.00
2023-04-02T19:11:49.666Z,97025.75
2023-04-02T19:14:15.954Z,97030.28
2023-04-02T19:16:42.282Z,97028.09
2023-04-02T19:19:08.532Z,97035.06
2023-04-02T19:21:34.803Z,97036.94
2023-04-02T19:24:01.152Z,97042.75
2023-04-02T19:26:27.417Z,97040.56
2023-04-02T19:28:53.669Z,97043.22
2023-04-02T19:31:19.988Z,97048.00
2023-04-02T19:33:46.271Z,97050.06
2023-04-02T19:36:12.588Z,97044.94
2023-04-02T19:38:38.978Z,97057.75
2023-04-02T19:41:05.233Z,97053.09
2023-04-02T19:43:31.533Z,97061.34
2023-04-02T19:45:57.787Z,97064.25
2023-04-02T19:48:24.073Z,97070.66
2023-04-02T19:50:50.345Z,97074.59
2023-04-02T19:53:16.614Z,97073.78
2023-04-02T19:55:42.888Z,97077.50
2023-04-02T19:58:19.318Z,97076.47
2023-04-02T20:00:46.279Z,97078.09
2023-04-02T20:03:12.638Z,97088.31
2023-04-02T20:05:39.198Z,97084.81
2023-04-02T20:08:05.619Z,97084.59
2023-04-02T20:10:32.024Z,97090.75
2023-04-02T20:12:58.277Z,97088.31
2023-04-02T20:15:24.608Z,97093.66
2023-04-02T20:17:50.970Z,97095.28
2023-04-02T20:20:17.224Z,97092.25
2023-04-02T20:22:43.506Z,97098.97
2023-04-02T20:25:09.765Z,97101.09
2023-04-02T20:27:36.060Z,97097.94
2023-04-02T20:30:02.346Z,97093.88
2023-04-02T20:32:28.687Z,97095.97
2023-04-02T20:34:55.073Z,97102.13
2023-04-02T20:37:21.327Z,97098.41
2023-04-02T20:39:47.661Z,97092.50
2023-04-02T20:42:14.044Z,97090.88
2023-04-02T20:44:40.319Z,97095.97
2023-04-02T20:47:06.593Z,97104.22
2023-04-02T20:49:32.851Z,97099.69
2023-04-02T20:51:59.109Z,97105.50
2023-04-02T20:54:25.388Z,97105.16
2023-04-02T20:56:51.646Z,97106.22
2023-04-02T20:59:17.986Z,97108.28
2023-04-02T21:01:44.326Z,97114.44
2023-04-02T21:04:10.623Z,97119.22
2023-04-02T21:06:36.901Z,97108.75
2023-04-02T21:09:03.206Z,97111.19
2023-04-02T21:11:29.513Z,97108.75
2023-04-02T21:13:55.779Z,97108.75
2023-04-02T21:16:22.089Z,97120.72
2023-04-02T21:18:48.416Z,97118.75
2023-04-02T21:21:14.728Z,97120.03
2023-04-02T21:23:40.978Z,97114.69
2023-04-02T21:26:07.265Z,97119.00
2023-04-02T21:28:33.521Z,97116.09
2023-04-02T21:30:59.803Z,97115.03
2023-04-02T21:33:26.064Z,97113.41
2023-04-02T21:35:52.402Z,97115.03
2023-04-02T21:38:18.725Z,97118.75
2023-04-02T21:40:45.022Z,97124.56
2023-04-02T21:43:11.276Z,97119.69
2023-04-02T21:45:37.641Z,97120.97
2023-04-02T21:48:04.057Z,97122.25
2023-04-02T21:50:30.377Z,97120.63
2023-04-02T21:52:56.640Z,97123.28
2023-04-02T21:55:22.927Z,97124.09
2023-04-02T21:57:49.195Z,97119.00
2023-04-02T22:00:15.465Z,97116.78
2023-04-02T22:02:41.826Z,97116.78
2023-04-02T22:05:08.160Z,97115.16
2023-04-02T22:07:34.410Z,97115.75
2023-04-02T22:10:00.687Z,97118.41
2023-04-02T22:12:26.989Z,97115.75
2023-04-02T22:14:53.279Z,97109.81
2023-04-02T22:17:19.559Z,97109.25
2023-04-02T22:19:45.852Z,97113.19
2023-04-02T22:22:12.214Z,97110.97
2023-04-02T22:24:38.541Z,97110.97
2023-04-02T22:27:04.820Z,97108.53
2023-04-02T22:29:31.102Z,97109.59
2023-04-02T22:31:57.408Z,97106.34
2023-04-02T22:34:23.668Z,97107.63
2023-04-02T22:36:49.923Z,97111.09
2023-04-02T22:39:16.195Z,97107.28
2023-04-02T22:41:42.462Z,97101.34
2023-04-02T22:44:08.760Z,97105.06
2023-04-02T22:46:35.238Z,97107.72
2023-04-02T22:49:01.812Z,97105.88
2023-04-02T22:51:28.162Z,97106.34
2023-04-02T22:53:54.448Z,97101.47
2023-04-02T22:56:20.702Z,97109.13
2023-04-02T22:58:47.025Z,97108.06
2023-04-02T23:01:13.356Z,97101.56
2023-04-02T23:03:39.662Z,97099.94
2023-04-02T23:06:05.978Z,97100.41
2023-04-02T23:08:32.238Z,97101.22
2023-04-02T23:10:58.490Z,97097.75
2023-04-02T23:13:24.783Z,97095.06
2023-04-02T23:15:51.088Z,97092.50
2023-04-02T23:18:17.378Z,97089.50
2023-04-02T23:20:43.656Z,97089.72
2023-04-02T23:23:09.946Z,97097.63
2023-04-02T23:25:36.245Z,97091.47
2023-04-02T23:28:02.591Z,97093.56
2023-04-02T23:30:28.860Z,97095.50
2023-04-02T23:32:55.124Z,97096.31
2023-04-02T23:35:21.387Z,97100.25
2023-04-02T23:37:47.698Z,97097.59
2023-04-02T23:40:14.136Z,97103.75
2023-04-02T23:42:40.466Z,97099.22
2023-04-02T23:45:06.707Z,97093.75
2023-04-02T23:47:32.991Z,97089.13
2023-04-02T23:49:59.270Z,97089.56
2023-04-02T23:52:25.521Z,97090.63
2023-04-02T23:54:51.794Z,97091.44
2023-04-02T23:57:18.141Z,97090.84
2023-04-02T23:59:44.438Z,97089.22
